sensor_id;sensor_type;location;lat;lon;timestamp;P1;durP1;ratioP1;P2;durP2;ratioP2
30398;SDS011;17195;50.838;7.214;2023-08-01T00:00:26;1.30;;;0.65;;
30398;SDS011;17195;50.838;7.214;2023-08-01T00:02:52;3.40;;;0.75;;
30398;SDS011;17195;50.838;7.214;2023-08-01T00:05:17;1.50;;;0.60;;
30398;SDS011;17195;50.838;7.214;2023-08-01T00:07:43;2.10;;;0.60;;
30398;SDS011;17195;50.838;7.214;2023-08-01T00:10:08;3.38;;;0.50;;
30398;SDS011;17195;50.838;7.214;2023-08-01T00:12:34;1.35;;;0.47;;
30398;SDS011;17195;50.838;7.214;2023-08-01T00:15:00;1.88;;;0.60;;
30398;SDS011;17195;50.838;7.214;2023-08-01T00:17:26;3.55;;;0.50;;
30398;SDS011;17195;50.838;7.214;2023-08-01T00:19:51;1.10;;;0.35;;
30398;SDS011;17195;50.838;7.214;2023-08-01T00:22:17;1.83;;;0.40;;
30398;SDS011;17195;50.838;7.214;2023-08-01T00:24:42;2.75;;;0.47;;
30398;SDS011;17195;50.838;7.214;2023-08-01T00:27:08;1.25;;;0.20;;
30398;SDS011;17195;50.838;7.214;2023-08-01T00:29:35;0.85;;;0.52;;
30398;SDS011;17195;50.838;7.214;2023-08-01T00:32:01;0.38;;;0.30;;
30398;SDS011;17195;50.838;7.214;2023-08-01T00:34:27;2.42;;;0.30;;
30398;SDS011;17195;50.838;7.214;2023-08-01T00:36:52;1.65;;;0.40;;
30398;SDS011;17195;50.838;7.214;2023-08-01T00:39:18;0.80;;;0.40;;
30398;SDS011;17195;50.838;7.214;2023-08-01T00:41:43;0.40;;;0.20;;
30398;SDS011;17195;50.838;7.214;2023-08-01T00:44:09;2.33;;;0.30;;
30398;SDS011;17195;50.838;7.214;2023-08-01T00:46:34;2.38;;;0.68;;
30398;SDS011;17195;50.838;7.214;2023-08-01T00:49:00;0.85;;;0.30;;
30398;SDS011;17195;50.838;7.214;2023-08-01T00:51:26;1.05;;;0.40;;
30398;SDS011;17195;50.838;7.214;2023-08-01T00:53:51;0.68;;;0.28;;
30398;SDS011;17195;50.838;7.214;2023-08-01T00:56:17;0.40;;;0.25;;
30398;SDS011;17195;50.838;7.214;2023-08-01T00:58:43;0.40;;;0.30;;
30398;SDS011;17195;50.838;7.214;2023-08-01T01:01:09;0.60;;;0.30;;
30398;SDS011;17195;50.838;7.214;2023-08-01T01:03:35;4.68;;;0.63;;
30398;SDS011;17195;50.838;7.214;2023-08-01T01:06:06;2.25;;;0.30;;
30398;SDS011;17195;50.838;7.214;2023-08-01T01:08:36;2.15;;;0.47;;
30398;SDS011;17195;50.838;7.214;2023-08-01T01:11:02;0.32;;;0.20;;
30398;SDS011;17195;50.838;7.214;2023-08-01T01:13:29;1.35;;;0.30;;
30398;SDS011;17195;50.838;7.214;2023-08-01T01:15:54;0.40;;;0.30;;
30398;SDS011;17195;50.838;7.214;2023-08-01T01:18:20;0.30;;;0.20;;
30398;SDS011;17195;50.838;7.214;2023-08-01T01:20:45;2.13;;;0.40;;
30398;SDS011;17195;50.838;7.214;2023-08-01T01:23:11;0.40;;;0.30;;
30398;SDS011;17195;50.838;7.214;2023-08-01T01:25:37;1.00;;;0.30;;
30398;SDS011;17195;50.838;7.214;2023-08-01T01:28:04;2.88;;;0.30;;
30398;SDS011;17195;50.838;7.214;2023-08-01T01:30:30;1.75;;;0.45;;
30398;SDS011;17195;50.838;7.214;2023-08-01T01:32:58;2.20;;;0.25;;
30398;SDS011;17195;50.838;7.214;2023-08-01T01:35:25;0.28;;;0.20;;
30398;SDS011;17195;50.838;7.214;2023-08-01T01:37:50;0.60;;;0.25;;
30398;SDS011;17195;50.838;7.214;2023-08-01T01:40:16;3.42;;;0.20;;
30398;SDS011;17195;50.838;7.214;2023-08-01T01:42:41;0.50;;;0.30;;
30398;SDS011;17195;50.838;7.214;2023-08-01T01:45:07;0.43;;;0.30;;
30398;SDS011;17195;50.838;7.214;2023-08-01T01:47:33;0.52;;;0.30;;
30398;SDS011;17195;50.838;7.214;2023-08-01T01:49:58;0.80;;;0.35;;
30398;SDS011;17195;50.838;7.214;2023-08-01T01:52:24;0.77;;;0.43;;
30398;SDS011;17195;50.838;7.214;2023-08-01T01:54:49;2.08;;;0.38;;
30398;SDS011;17195;50.838;7.214;2023-08-01T01:57:15;2.33;;;0.40;;
30398;SDS011;17195;50.838;7.214;2023-08-01T01:59:40;0.50;;;0.32;;
30398;SDS011;17195;50.838;7.214;2023-08-01T02:02:06;2.08;;;0.50;;
30398;SDS011;17195;50.838;7.214;2023-08-01T02:04:31;0.90;;;0.30;;
30398;SDS011;17195;50.838;7.214;2023-08-01T02:06:57;0.85;;;0.50;;
30398;SDS011;17195;50.838;7.214;2023-08-01T02:09:23;1.52;;;0.40;;
30398;SDS011;17195;50.838;7.214;2023-08-01T02:11:49;4.25;;;0.85;;
30398;SDS011;17195;50.838;7.214;2023-08-01T02:14:14;0.60;;;0.40;;
30398;SDS011;17195;50.838;7.214;2023-08-01T02:16:40;0.65;;;0.32;;
30398;SDS011;17195;50.838;7.214;2023-08-01T02:19:06;0.60;;;0.30;;
30398;SDS011;17195;50.838;7.214;2023-08-01T02:21:32;0.47;;;0.30;;
30398;SDS011;17195;50.838;7.214;2023-08-01T02:23:57;1.30;;;0.30;;
30398;SDS011;17195;50.838;7.214;2023-08-01T02:26:23;0.65;;;0.20;;
30398;SDS011;17195;50.838;7.214;2023-08-01T02:28:49;0.57;;;0.40;;
30398;SDS011;17195;50.838;7.214;2023-08-01T02:31:15;1.38;;;0.65;;
30398;SDS011;17195;50.838;7.214;2023-08-01T02:33:41;0.60;;;0.60;;
30398;SDS011;17195;50.838;7.214;2023-08-01T02:36:07;1.90;;;0.57;;
30398;SDS011;17195;50.838;7.214;2023-08-01T02:38:32;0.77;;;0.60;;
30398;SDS011;17195;50.838;7.214;2023-08-01T02:40:58;1.40;;;0.60;;
30398;SDS011;17195;50.838;7.214;2023-08-01T02:43:23;2.35;;;0.68;;
30398;SDS011;17195;50.838;7.214;2023-08-01T02:45:49;1.45;;;0.50;;
30398;SDS011;17195;50.838;7.214;2023-08-01T02:48:15;0.82;;;0.63;;
30398;SDS011;17195;50.838;7.214;2023-08-01T02:50:41;0.40;;;0.40;;
30398;SDS011;17195;50.838;7.214;2023-08-01T02:53:06;2.22;;;0.75;;
30398;SDS011;17195;50.838;7.214;2023-08-01T02:55:32;0.90;;;0.70;;
30398;SDS011;17195;50.838;7.214;2023-08-01T02:57:57;1.05;;;0.88;;
30398;SDS011;17195;50.838;7.214;2023-08-01T03:00:23;1.10;;;0.77;;
30398;SDS011;17195;50.838;7.214;2023-08-01T03:02:49;1.50;;;1.00;;
30398;SDS011;17195;50.838;7.214;2023-08-01T03:05:14;1.40;;;1.20;;
30398;SDS011;17195;50.838;7.214;2023-08-01T03:07:40;1.50;;;1.40;;
30398;SDS011;17195;50.838;7.214;2023-08-01T03:10:05;2.00;;;1.60;;
30398;SDS011;17195;50.838;7.214;2023-08-01T03:12:31;2.33;;;1.35;;
30398;SDS011;17195;50.838;7.214;2023-08-01T03:14:57;5.03;;;1.55;;
30398;SDS011;17195;50.838;7.214;2023-08-01T03:17:23;2.40;;;1.60;;
30398;SDS011;17195;50.838;7.214;2023-08-01T03:19:49;1.85;;;1.50;;
30398;SDS011;17195;50.838;7.214;2023-08-01T03:22:14;1.83;;;1.33;;
30398;SDS011;17195;50.838;7.214;2023-08-01T03:24:40;1.60;;;1.50;;
30398;SDS011;17195;50.838;7.214;2023-08-01T03:27:06;1.45;;;1.00;;
30398;SDS011;17195;50.838;7.214;2023-08-01T03:29:31;2.75;;;0.90;;
30398;SDS011;17195;50.838;7.214;2023-08-01T03:31:57;2.03;;;0.60;;
30398;SDS011;17195;50.838;7.214;2023-08-01T03:34:22;1.75;;;0.90;;
30398;SDS011;17195;50.838;7.214;2023-08-01T03:36:49;0.98;;;0.70;;
30398;SDS011;17195;50.838;7.214;2023-08-01T03:39:15;1.98;;;0.68;;
30398;SDS011;17195;50.838;7.214;2023-08-01T03:41:40;2.55;;;1.00;;
30398;SDS011;17195;50.838;7.214;2023-08-01T03:44:06;1.45;;;0.98;;
30398;SDS011;17195;50.838;7.214;2023-08-01T03:46:31;1.70;;;1.25;;
30398;SDS011;17195;50.838;7.214;2023-08-01T03:48:57;5.13;;;1.00;;
30398;SDS011;17195;50.838;7.214;2023-08-01T03:51:22;2.83;;;0.90;;
30398;SDS011;17195;50.838;7.214;2023-08-01T03:53:48;1.77;;;1.00;;
30398;SDS011;17195;50.838;7.214;2023-08-01T03:56:14;3.63;;;1.00;;
30398;SDS011;17195;50.838;7.214;2023-08-01T03:58:39;1.67;;;1.20;;
30398;SDS011;17195;50.838;7.214;2023-08-01T04:01:05;2.17;;;1.38;;
30398;SDS011;17195;50.838;7.214;2023-08-01T04:03:33;1.15;;;1.08;;
30398;SDS011;17195;50.838;7.214;2023-08-01T04:05:59;1.98;;;1.08;;
30398;SDS011;17195;50.838;7.214;2023-08-01T04:08:24;1.15;;;0.80;;
30398;SDS011;17195;50.838;7.214;2023-08-01T04:10:50;2.97;;;1.00;;
30398;SDS011;17195;50.838;7.214;2023-08-01T04:13:15;2.65;;;1.33;;
30398;SDS011;17195;50.838;7.214;2023-08-01T04:15:41;5.07;;;1.73;;
30398;SDS011;17195;50.838;7.214;2023-08-01T04:18:06;3.60;;;2.30;;
30398;SDS011;17195;50.838;7.214;2023-08-01T04:20:32;12.25;;;2.30;;
30398;SDS011;17195;50.838;7.214;2023-08-01T04:22:58;3.88;;;2.40;;
30398;SDS011;17195;50.838;7.214;2023-08-01T04:25:23;9.32;;;3.03;;
30398;SDS011;17195;50.838;7.214;2023-08-01T04:27:51;5.25;;;2.50;;
30398;SDS011;17195;50.838;7.214;2023-08-01T04:30:17;5.00;;;3.03;;
30398;SDS011;17195;50.838;7.214;2023-08-01T04:32:43;3.75;;;2.80;;
30398;SDS011;17195;50.838;7.214;2023-08-01T04:35:08;7.05;;;3.30;;
30398;SDS011;17195;50.838;7.214;2023-08-01T04:37:34;6.35;;;3.63;;
30398;SDS011;17195;50.838;7.214;2023-08-01T04:39:59;7.43;;;4.15;;
30398;SDS011;17195;50.838;7.214;2023-08-01T04:42:25;9.23;;;3.90;;
30398;SDS011;17195;50.838;7.214;2023-08-01T04:44:50;5.25;;;4.15;;
30398;SDS011;17195;50.838;7.214;2023-08-01T04:47:17;6.95;;;3.90;;
30398;SDS011;17195;50.838;7.214;2023-08-01T04:49:43;6.07;;;3.90;;
30398;SDS011;17195;50.838;7.214;2023-08-01T04:52:09;8.68;;;4.18;;
30398;SDS011;17195;50.838;7.214;2023-08-01T04:54:35;6.80;;;3.85;;
30398;SDS011;17195;50.838;7.214;2023-08-01T04:57:00;6.07;;;3.97;;
30398;SDS011;17195;50.838;7.214;2023-08-01T04:59:26;4.95;;;3.63;;
30398;SDS011;17195;50.838;7.214;2023-08-01T05:01:51;11.32;;;4.18;;
30398;SDS011;17195;50.838;7.214;2023-08-01T05:04:17;7.13;;;4.38;;
30398;SDS011;17195;50.838;7.214;2023-08-01T05:06:43;7.95;;;4.68;;
30398;SDS011;17195;50.838;7.214;2023-08-01T05:09:08;5.20;;;3.80;;
30398;SDS011;17195;50.838;7.214;2023-08-01T05:11:34;8.63;;;4.53;;
30398;SDS011;17195;50.838;7.214;2023-08-01T05:13:59;5.35;;;4.40;;
30398;SDS011;17195;50.838;7.214;2023-08-01T05:16:25;9.27;;;4.70;;
30398;SDS011;17195;50.838;7.214;2023-08-01T05:18:50;7.22;;;3.85;;
30398;SDS011;17195;50.838;7.214;2023-08-01T05:21:16;9.55;;;4.50;;
30398;SDS011;17195;50.838;7.214;2023-08-01T05:23:41;7.10;;;4.10;;
30398;SDS011;17195;50.838;7.214;2023-08-01T05:26:07;9.23;;;3.88;;
30398;SDS011;17195;50.838;7.214;2023-08-01T05:28:33;6.00;;;4.00;;
30398;SDS011;17195;50.838;7.214;2023-08-01T05:30:58;10.02;;;4.05;;
30398;SDS011;17195;50.838;7.214;2023-08-01T05:33:24;6.22;;;3.90;;
30398;SDS011;17195;50.838;7.214;2023-08-01T05:35:49;7.28;;;4.30;;
30398;SDS011;17195;50.838;7.214;2023-08-01T05:38:15;6.00;;;3.92;;
30398;SDS011;17195;50.838;7.214;2023-08-01T05:40:41;7.50;;;4.40;;
30398;SDS011;17195;50.838;7.214;2023-08-01T05:43:06;7.28;;;3.60;;
30398;SDS011;17195;50.838;7.214;2023-08-01T05:45:33;9.35;;;4.88;;
30398;SDS011;17195;50.838;7.214;2023-08-01T05:48:00;10.98;;;4.40;;
30398;SDS011;17195;50.838;7.214;2023-08-01T05:50:26;8.45;;;4.38;;
30398;SDS011;17195;50.838;7.214;2023-08-01T05:52:52;8.13;;;4.45;;
30398;SDS011;17195;50.838;7.214;2023-08-01T05:55:17;7.88;;;4.50;;
30398;SDS011;17195;50.838;7.214;2023-08-01T05:57:43;11.13;;;4.20;;
30398;SDS011;17195;50.838;7.214;2023-08-01T06:00:09;8.30;;;4.20;;
30398;SDS011;17195;50.838;7.214;2023-08-01T06:02:35;11.35;;;4.32;;
30398;SDS011;17195;50.838;7.214;2023-08-01T06:05:01;5.90;;;3.25;;
30398;SDS011;17195;50.838;7.214;2023-08-01T06:07:27;10.10;;;4.40;;
30398;SDS011;17195;50.838;7.214;2023-08-01T06:09:52;8.27;;;3.78;;
30398;SDS011;17195;50.838;7.214;2023-08-01T06:12:18;5.55;;;3.97;;
30398;SDS011;17195;50.838;7.214;2023-08-01T06:14:44;6.20;;;3.42;;
30398;SDS011;17195;50.838;7.214;2023-08-01T06:17:10;5.57;;;3.28;;
30398;SDS011;17195;50.838;7.214;2023-08-01T06:19:35;9.93;;;3.35;;
30398;SDS011;17195;50.838;7.214;2023-08-01T06:22:01;6.85;;;2.75;;
30398;SDS011;17195;50.838;7.214;2023-08-01T06:24:26;3.88;;;2.75;;
30398;SDS011;17195;50.838;7.214;2023-08-01T06:26:52;6.18;;;3.55;;
30398;SDS011;17195;50.838;7.214;2023-08-01T06:29:17;3.65;;;2.72;;
30398;SDS011;17195;50.838;7.214;2023-08-01T06:31:43;5.03;;;3.10;;
30398;SDS011;17195;50.838;7.214;2023-08-01T06:34:09;7.47;;;3.40;;
30398;SDS011;17195;50.838;7.214;2023-08-01T06:36:34;6.32;;;3.72;;
30398;SDS011;17195;50.838;7.214;2023-08-01T06:39:00;4.47;;;2.85;;
30398;SDS011;17195;50.838;7.214;2023-08-01T06:41:26;6.60;;;3.40;;
30398;SDS011;17195;50.838;7.214;2023-08-01T06:43:53;9.15;;;3.10;;
30398;SDS011;17195;50.838;7.214;2023-08-01T06:46:18;5.38;;;3.15;;
30398;SDS011;17195;50.838;7.214;2023-08-01T06:48:44;6.55;;;3.15;;
30398;SDS011;17195;50.838;7.214;2023-08-01T06:51:09;7.57;;;3.40;;
30398;SDS011;17195;50.838;7.214;2023-08-01T06:53:35;6.20;;;3.15;;
30398;SDS011;17195;50.838;7.214;2023-08-01T06:56:01;6.88;;;3.40;;
30398;SDS011;17195;50.838;7.214;2023-08-01T06:58:26;5.75;;;3.20;;
30398;SDS011;17195;50.838;7.214;2023-08-01T07:00:52;12.10;;;3.92;;
30398;SDS011;17195;50.838;7.214;2023-08-01T07:03:17;7.30;;;3.60;;
30398;SDS011;17195;50.838;7.214;2023-08-01T07:05:43;6.85;;;3.70;;
30398;SDS011;17195;50.838;7.214;2023-08-01T07:08:08;8.25;;;3.25;;
30398;SDS011;17195;50.838;7.214;2023-08-01T07:10:34;6.70;;;3.33;;
30398;SDS011;17195;50.838;7.214;2023-08-01T07:13:00;8.05;;;3.65;;
30398;SDS011;17195;50.838;7.214;2023-08-01T07:15:29;10.50;;;3.55;;
30398;SDS011;17195;50.838;7.214;2023-08-01T07:17:55;9.38;;;4.15;;
30398;SDS011;17195;50.838;7.214;2023-08-01T07:20:21;6.50;;;3.53;;
30398;SDS011;17195;50.838;7.214;2023-08-01T07:22:46;8.48;;;4.03;;
30398;SDS011;17195;50.838;7.214;2023-08-01T07:25:12;7.00;;;3.70;;
30398;SDS011;17195;50.838;7.214;2023-08-01T07:27:37;6.28;;;3.45;;
30398;SDS011;17195;50.838;7.214;2023-08-01T07:30:04;8.15;;;3.65;;
30398;SDS011;17195;50.838;7.214;2023-08-01T07:32:30;8.55;;;3.63;;
30398;SDS011;17195;50.838;7.214;2023-08-01T07:34:56;8.75;;;4.20;;
30398;SDS011;17195;50.838;7.214;2023-08-01T07:37:21;8.57;;;3.30;;
30398;SDS011;17195;50.838;7.214;2023-08-01T07:39:47;8.57;;;3.85;;
30398;SDS011;17195;50.838;7.214;2023-08-01T07:42:14;7.65;;;4.43;;
30398;SDS011;17195;50.838;7.214;2023-08-01T07:44:39;6.15;;;3.95;;
30398;SDS011;17195;50.838;7.214;2023-08-01T07:47:05;11.27;;;4.32;;
30398;SDS011;17195;50.838;7.214;2023-08-01T07:49:30;6.93;;;4.20;;
30398;SDS011;17195;50.838;7.214;2023-08-01T07:51:56;10.68;;;4.45;;
30398;SDS011;17195;50.838;7.214;2023-08-01T07:54:21;7.45;;;3.90;;
30398;SDS011;17195;50.838;7.214;2023-08-01T07:56:49;8.63;;;4.15;;
30398;SDS011;17195;50.838;7.214;2023-08-01T07:59:14;8.35;;;4.07;;
30398;SDS011;17195;50.838;7.214;2023-08-01T08:01:40;8.50;;;4.57;;
30398;SDS011;17195;50.838;7.214;2023-08-01T08:04:06;7.63;;;3.70;;
30398;SDS011;17195;50.838;7.214;2023-08-01T08:06:32;9.63;;;4.32;;
30398;SDS011;17195;50.838;7.214;2023-08-01T08:08:57;7.38;;;4.15;;
30398;SDS011;17195;50.838;7.214;2023-08-01T08:11:23;7.13;;;4.15;;
30398;SDS011;17195;50.838;7.214;2023-08-01T08:13:48;7.28;;;4.30;;
30398;SDS011;17195;50.838;7.214;2023-08-01T08:16:14;5.35;;;3.58;;
30398;SDS011;17195;50.838;7.214;2023-08-01T08:18:40;6.97;;;4.45;;
30398;SDS011;17195;50.838;7.214;2023-08-01T08:21:05;8.90;;;4.05;;
30398;SDS011;17195;50.838;7.214;2023-08-01T08:23:31;8.57;;;4.25;;
30398;SDS011;17195;50.838;7.214;2023-08-01T08:25:56;6.88;;;3.67;;
30398;SDS011;17195;50.838;7.214;2023-08-01T08:28:29;6.82;;;4.40;;
30398;SDS011;17195;50.838;7.214;2023-08-01T08:30:56;6.95;;;3.33;;
30398;SDS011;17195;50.838;7.214;2023-08-01T08:33:22;9.20;;;3.33;;
30398;SDS011;17195;50.838;7.214;2023-08-01T08:35:48;6.85;;;3.88;;
30398;SDS011;17195;50.838;7.214;2023-08-01T08:38:13;8.35;;;4.28;;
30398;SDS011;17195;50.838;7.214;2023-08-01T08:40:40;7.55;;;4.15;;
30398;SDS011;17195;50.838;7.214;2023-08-01T08:43:17;8.15;;;4.63;;
30398;SDS011;17195;50.838;7.214;2023-08-01T08:45:43;10.63;;;4.05;;
30398;SDS011;17195;50.838;7.214;2023-08-01T08:48:13;7.88;;;4.30;;
30398;SDS011;17195;50.838;7.214;2023-08-01T08:50:43;8.85;;;3.80;;
30398;SDS011;17195;50.838;7.214;2023-08-01T08:53:10;10.80;;;4.25;;
30398;SDS011;17195;50.838;7.214;2023-08-01T08:55:37;9.80;;;4.95;;
30398;SDS011;17195;50.838;7.214;2023-08-01T08:58:06;8.32;;;4.15;;
30398;SDS011;17195;50.838;7.214;2023-08-01T09:00:34;5.95;;;3.83;;
30398;SDS011;17195;50.838;7.214;2023-08-01T09:03:00;9.77;;;4.40;;
30398;SDS011;17195;50.838;7.214;2023-08-01T09:05:27;5.82;;;3.70;;
30398;SDS011;17195;50.838;7.214;2023-08-01T09:07:56;8.23;;;3.70;;
30398;SDS011;17195;50.838;7.214;2023-08-01T09:10:23;10.65;;;3.95;;
30398;SDS011;17195;50.838;7.214;2023-08-01T09:12:49;5.80;;;3.85;;
30398;SDS011;17195;50.838;7.214;2023-08-01T09:15:15;6.53;;;3.70;;
30398;SDS011;17195;50.838;7.214;2023-08-01T09:17:48;6.95;;;3.50;;
30398;SDS011;17195;50.838;7.214;2023-08-01T09:20:14;5.68;;;3.33;;
30398;SDS011;17195;50.838;7.214;2023-08-01T09:22:43;9.05;;;2.92;;
30398;SDS011;17195;50.838;7.214;2023-08-01T09:25:10;4.85;;;2.75;;
30398;SDS011;17195;50.838;7.214;2023-08-01T09:27:36;4.93;;;2.60;;
30398;SDS011;17195;50.838;7.214;2023-08-01T09:30:12;6.85;;;2.78;;
30398;SDS011;17195;50.838;7.214;2023-08-01T09:32:50;6.05;;;2.28;;
30398;SDS011;17195;50.838;7.214;2023-08-01T09:35:17;4.55;;;2.17;;
30398;SDS011;17195;50.838;7.214;2023-08-01T09:37:42;5.72;;;2.35;;
30398;SDS011;17195;50.838;7.214;2023-08-01T09:40:09;4.80;;;2.30;;
30398;SDS011;17195;50.838;7.214;2023-08-01T09:42:41;4.63;;;2.60;;
30398;SDS011;17195;50.838;7.214;2023-08-01T09:47:41;4.93;;;2.55;;
30398;SDS011;17195;50.838;7.214;2023-08-01T09:50:08;4.38;;;2.13;;
30398;SDS011;17195;50.838;7.214;2023-08-01T09:52:45;8.00;;;2.80;;
30398;SDS011;17195;50.838;7.214;2023-08-01T09:55:17;5.35;;;2.83;;
30398;SDS011;17195;50.838;7.214;2023-08-01T09:57:59;5.47;;;2.28;;
30398;SDS011;17195;50.838;7.214;2023-08-01T10:00:25;4.90;;;2.40;;
30398;SDS011;17195;50.838;7.214;2023-08-01T10:02:52;5.95;;;2.85;;
30398;SDS011;17195;50.838;7.214;2023-08-01T10:05:18;7.57;;;2.90;;
30398;SDS011;17195;50.838;7.214;2023-08-01T10:07:45;7.20;;;2.47;;
30398;SDS011;17195;50.838;7.214;2023-08-01T10:10:12;5.05;;;2.60;;
30398;SDS011;17195;50.838;7.214;2023-08-01T10:12:38;6.47;;;2.25;;
30398;SDS011;17195;50.838;7.214;2023-08-01T10:15:08;3.80;;;1.95;;
30398;SDS011;17195;50.838;7.214;2023-08-01T10:17:34;10.43;;;2.33;;
30398;SDS011;17195;50.838;7.214;2023-08-01T10:20:00;5.28;;;2.10;;
30398;SDS011;17195;50.838;7.214;2023-08-01T10:22:26;3.25;;;2.13;;
30398;SDS011;17195;50.838;7.214;2023-08-01T10:24:52;4.25;;;2.13;;
30398;SDS011;17195;50.838;7.214;2023-08-01T10:27:19;5.10;;;2.38;;
30398;SDS011;17195;50.838;7.214;2023-08-01T10:29:55;6.60;;;2.53;;
30398;SDS011;17195;50.838;7.214;2023-08-01T10:32:27;4.93;;;2.10;;
30398;SDS011;17195;50.838;7.214;2023-08-01T10:35:00;5.35;;;2.00;;
30398;SDS011;17195;50.838;7.214;2023-08-01T10:37:26;3.72;;;2.08;;
30398;SDS011;17195;50.838;7.214;2023-08-01T10:40:03;3.95;;;2.03;;
30398;SDS011;17195;50.838;7.214;2023-08-01T10:42:42;8.07;;;2.47;;
30398;SDS011;17195;50.838;7.214;2023-08-01T10:45:22;3.85;;;2.15;;
30398;SDS011;17195;50.838;7.214;2023-08-01T10:47:49;5.45;;;2.10;;
30398;SDS011;17195;50.838;7.214;2023-08-01T10:50:15;5.53;;;2.38;;
30398;SDS011;17195;50.838;7.214;2023-08-01T10:52:42;4.55;;;2.20;;
30398;SDS011;17195;50.838;7.214;2023-08-01T10:55:08;4.43;;;2.40;;
30398;SDS011;17195;50.838;7.214;2023-08-01T10:57:35;4.18;;;2.20;;
30398;SDS011;17195;50.838;7.214;2023-08-01T11:00:05;4.45;;;2.17;;
30398;SDS011;17195;50.838;7.214;2023-08-01T11:02:35;5.00;;;1.95;;
30398;SDS011;17195;50.838;7.214;2023-08-01T11:05:05;5.55;;;1.80;;
30398;SDS011;17195;50.838;7.214;2023-08-01T11:07:32;4.43;;;1.98;;
30398;SDS011;17195;50.838;7.214;2023-08-01T11:10:17;3.58;;;2.17;;
30398;SDS011;17195;50.838;7.214;2023-08-01T11:12:43;5.10;;;2.20;;
30398;SDS011;17195;50.838;7.214;2023-08-01T11:15:12;4.35;;;2.25;;
30398;SDS011;17195;50.838;7.214;2023-08-01T11:17:42;4.68;;;2.38;;
30398;SDS011;17195;50.838;7.214;2023-08-01T11:20:11;2.53;;;1.95;;
30398;SDS011;17195;50.838;7.214;2023-08-01T11:22:37;9.07;;;2.28;;
30398;SDS011;17195;50.838;7.214;2023-08-01T11:25:13;5.68;;;2.45;;
30398;SDS011;17195;50.838;7.214;2023-08-01T11:27:39;3.72;;;1.73;;
30398;SDS011;17195;50.838;7.214;2023-08-01T11:30:04;6.13;;;2.28;;
30398;SDS011;17195;50.838;7.214;2023-08-01T11:32:37;4.10;;;1.92;;
30398;SDS011;17195;50.838;7.214;2023-08-01T11:35:03;3.33;;;1.92;;
30398;SDS011;17195;50.838;7.214;2023-08-01T11:37:29;4.70;;;1.70;;
30398;SDS011;17195;50.838;7.214;2023-08-01T11:39:56;8.85;;;2.00;;
30398;SDS011;17195;50.838;7.214;2023-08-01T11:42:22;6.57;;;2.15;;
30398;SDS011;17195;50.838;7.214;2023-08-01T11:44:48;4.20;;;1.75;;
30398;SDS011;17195;50.838;7.214;2023-08-01T11:47:14;3.55;;;1.40;;
30398;SDS011;17195;50.838;7.214;2023-08-01T11:49:45;3.15;;;1.33;;
30398;SDS011;17195;50.838;7.214;2023-08-01T11:52:22;2.42;;;1.60;;
30398;SDS011;17195;50.838;7.214;2023-08-01T11:54:51;3.90;;;2.03;;
30398;SDS011;17195;50.838;7.214;2023-08-01T11:57:17;5.30;;;1.70;;
30398;SDS011;17195;50.838;7.214;2023-08-01T11:59:46;4.72;;;1.95;;
30398;SDS011;17195;50.838;7.214;2023-08-01T12:04:47;4.18;;;1.42;;
30398;SDS011;17195;50.838;7.214;2023-08-01T12:07:14;5.18;;;1.30;;
30398;SDS011;17195;50.838;7.214;2023-08-01T12:09:40;2.70;;;1.70;;
30398;SDS011;17195;50.838;7.214;2023-08-01T12:12:05;4.90;;;1.55;;
30398;SDS011;17195;50.838;7.214;2023-08-01T12:14:31;4.72;;;1.60;;
30398;SDS011;17195;50.838;7.214;2023-08-01T12:16:57;4.53;;;2.00;;
30398;SDS011;17195;50.838;7.214;2023-08-01T12:19:22;5.85;;;1.67;;
30398;SDS011;17195;50.838;7.214;2023-08-01T12:21:48;4.15;;;1.55;;
30398;SDS011;17195;50.838;7.214;2023-08-01T12:24:14;2.22;;;1.23;;
30398;SDS011;17195;50.838;7.214;2023-08-01T12:26:39;2.47;;;1.13;;
30398;SDS011;17195;50.838;7.214;2023-08-01T12:29:05;3.40;;;1.58;;
30398;SDS011;17195;50.838;7.214;2023-08-01T12:31:30;2.80;;;1.25;;
30398;SDS011;17195;50.838;7.214;2023-08-01T12:33:56;2.63;;;1.30;;
30398;SDS011;17195;50.838;7.214;2023-08-01T12:36:22;2.22;;;1.38;;
30398;SDS011;17195;50.838;7.214;2023-08-01T12:38:48;4.72;;;1.75;;
30398;SDS011;17195;50.838;7.214;2023-08-01T12:41:15;3.47;;;1.60;;
30398;SDS011;17195;50.838;7.214;2023-08-01T12:43:40;5.28;;;1.90;;
30398;SDS011;17195;50.838;7.214;2023-08-01T12:46:06;5.43;;;2.10;;
30398;SDS011;17195;50.838;7.214;2023-08-01T12:48:32;4.82;;;1.85;;
30398;SDS011;17195;50.838;7.214;2023-08-01T12:50:57;5.78;;;2.50;;
30398;SDS011;17195;50.838;7.214;2023-08-01T12:53:23;7.03;;;2.20;;
30398;SDS011;17195;50.838;7.214;2023-08-01T12:55:49;8.18;;;2.63;;
30398;SDS011;17195;50.838;7.214;2023-08-01T12:58:16;6.55;;;2.20;;
30398;SDS011;17195;50.838;7.214;2023-08-01T13:00:42;3.42;;;2.00;;
30398;SDS011;17195;50.838;7.214;2023-08-01T13:03:08;5.50;;;2.40;;
30398;SDS011;17195;50.838;7.214;2023-08-01T13:05:34;3.65;;;2.20;;
30398;SDS011;17195;50.838;7.214;2023-08-01T13:08:01;5.60;;;2.25;;
30398;SDS011;17195;50.838;7.214;2023-08-01T13:10:29;4.18;;;1.95;;
30398;SDS011;17195;50.838;7.214;2023-08-01T13:12:59;4.38;;;2.03;;
30398;SDS011;17195;50.838;7.214;2023-08-01T13:15:25;4.50;;;1.70;;
30398;SDS011;17195;50.838;7.214;2023-08-01T13:17:51;4.07;;;2.08;;
30398;SDS011;17195;50.838;7.214;2023-08-01T13:20:17;5.93;;;1.92;;
30398;SDS011;17195;50.838;7.214;2023-08-01T13:22:44;7.90;;;2.25;;
30398;SDS011;17195;50.838;7.214;2023-08-01T13:25:12;5.63;;;1.80;;
30398;SDS011;17195;50.838;7.214;2023-08-01T13:27:39;6.97;;;1.58;;
30398;SDS011;17195;50.838;7.214;2023-08-01T13:30:05;5.30;;;1.63;;
30398;SDS011;17195;50.838;7.214;2023-08-01T13:32:31;7.80;;;1.90;;
30398;SDS011;17195;50.838;7.214;2023-08-01T13:34:56;3.30;;;1.42;;
30398;SDS011;17195;50.838;7.214;2023-08-01T13:37:22;4.78;;;1.73;;
30398;SDS011;17195;50.838;7.214;2023-08-01T13:39:47;3.20;;;1.02;;
30398;SDS011;17195;50.838;7.214;2023-08-01T13:42:13;3.33;;;1.58;;
30398;SDS011;17195;50.838;7.214;2023-08-01T13:44:39;2.20;;;1.23;;
30398;SDS011;17195;50.838;7.214;2023-08-01T13:47:05;4.40;;;1.20;;
30398;SDS011;17195;50.838;7.214;2023-08-01T13:49:31;4.70;;;1.10;;
30398;SDS011;17195;50.838;7.214;2023-08-01T13:51:57;2.40;;;1.15;;
30398;SDS011;17195;50.838;7.214;2023-08-01T13:54:23;1.85;;;1.13;;
30398;SDS011;17195;50.838;7.214;2023-08-01T13:56:49;2.22;;;1.20;;
30398;SDS011;17195;50.838;7.214;2023-08-01T13:59:14;3.92;;;1.30;;
30398;SDS011;17195;50.838;7.214;2023-08-01T14:01:40;2.35;;;0.75;;
30398;SDS011;17195;50.838;7.214;2023-08-01T14:04:06;4.47;;;1.20;;
30398;SDS011;17195;50.838;7.214;2023-08-01T14:06:31;2.40;;;1.00;;
30398;SDS011;17195;50.838;7.214;2023-08-01T14:08:57;4.72;;;1.30;;
30398;SDS011;17195;50.838;7.214;2023-08-01T14:11:22;2.53;;;1.25;;
30398;SDS011;17195;50.838;7.214;2023-08-01T14:13:48;3.72;;;1.50;;
30398;SDS011;17195;50.838;7.214;2023-08-01T14:16:14;2.13;;;0.95;;
30398;SDS011;17195;50.838;7.214;2023-08-01T14:18:41;3.67;;;1.52;;
30398;SDS011;17195;50.838;7.214;2023-08-01T14:21:07;4.38;;;1.45;;
30398;SDS011;17195;50.838;7.214;2023-08-01T14:23:33;3.03;;;1.20;;
30398;SDS011;17195;50.838;7.214;2023-08-01T14:25:58;3.33;;;1.40;;
30398;SDS011;17195;50.838;7.214;2023-08-01T14:28:24;2.80;;;1.30;;
30398;SDS011;17195;50.838;7.214;2023-08-01T14:30:50;4.97;;;1.50;;
30398;SDS011;17195;50.838;7.214;2023-08-01T14:33:15;4.53;;;1.77;;
30398;SDS011;17195;50.838;7.214;2023-08-01T14:35:41;4.15;;;1.75;;
30398;SDS011;17195;50.838;7.214;2023-08-01T14:38:07;6.40;;;2.00;;
30398;SDS011;17195;50.838;7.214;2023-08-01T14:40:33;3.80;;;1.88;;
30398;SDS011;17195;50.838;7.214;2023-08-01T14:43:00;4.80;;;1.80;;
30398;SDS011;17195;50.838;7.214;2023-08-01T14:45:26;4.38;;;2.13;;
30398;SDS011;17195;50.838;7.214;2023-08-01T14:47:52;4.80;;;2.15;;